AirNav   SIMCOM
 
 1611 users online  

MS20 Mach 1 Jet Port Airport
Brandon, Mississippi, USA


FAA INFORMATION EFFECTIVE 20 JULY 2017

Location

FAA Identifier: MS20
Lat/Long: 32-27-16.0000N / 089-54-16.0000W
32-27.266667N / 089-54.266667W
32.4544444 / -89.9044444
(estimated)
Elevation: 377 ft. / 115 m (estimated)
From city: 10 miles N of BRANDON, MS
Time zone: UTC -5 (UTC -6 during Standard Time)
Zip code: 39145

Airport Operations

Airport use: Private use. Permission required prior to landing
Activation date: 03/2011
Control tower: no
ARTCC: MEMPHIS CENTER
FSS: GREENWOOD FLIGHT SERVICE STATION
Attendance: MON-FRI 0800-1700
Segmented circle: no

Airport Communications

WX AWOS-3 at MBO (10 nm W): 119.125 (601-605-8137)
WX ASOS at JAN (12 nm SW): PHONE 601-932-2822
WX ASOS at HKS (18 nm SW): 120.625 (601-354-4037)

Nearby radio navigation aids

VOR radial/distance  VOR name  Freq  Var
MHZr084/10.0MAGNOLIA VORTAC113.2001W

 
NDB name  Hdg/Dist  Freq  Var  ID
ALLEN078/11.236501WJA .--- .-

Airport Services

Runway Information

Runway 18/36

Dimensions: 1200 x 50 ft. / 366 x 15 m
Surface: turf
RUNWAY 18  RUNWAY 36
Traffic pattern: leftleft

Airport Ownership and Management from official FAA records

Ownership: Privately-owned
Owner: CARL DAVIS
200 JETPORT
BRANDON, MS 39047
Phone 601-936-0777
Manager: CARL DAVIS
200 JETPORT
BRANDON, MS 39047
Phone 601-936-0777

Instrument Procedures

There are no published instrument procedures at MS20.

Some nearby airports with instrument procedures:

KMBO - Bruce Campbell Field Airport (10 nm W)
KJAN - Jackson-Medgar Wiley Evers International Airport (12 nm SW)
KHKS - Hawkins Field Airport (18 nm SW)
KJVW - John Bell Williams Airport (27 nm W)
17M - Magee Municipal Airport (36 nm S)
 
Loc | Ops | Rwys | IFR | FBO | Links
Com | Nav | Svcs | Stats | Notes


 
Aerial photo
No photo
 
Sectional chart

 
Airport distance calculator
Flying to Mach 1 Jet Port Airport? Find the distance to fly.

From to MS20

Sunrise and sunset
Times for 20-Jul-2017
 Local
(UTC-5)
 Zulu
(UTC)
Morning civil twilight05:4010:40
Sunrise06:0711:07
Sunset20:0501:05
Evening civil twilight20:3201:32

Current date and time
Zulu (UTC)  20-Jul-2017 18:30:40
Local (UTC-5)  20-Jul-2017 13:30:40
 
METAR
KMBO 
10nm W 
201815Z AUTO 00000KT 10SM SCT050 31/23 A3011 RMK AO2 PWINO
KJAN 
12nm SW 
201754Z 00000KT 10SM SCT049 33/22 A3012 RMK AO2 SLP195 T03330217 10356 20244 58006
KHKS 
17nm SW 
201753Z 00000KT 10SM CLR 34/21 A3013 RMK AO2 SLP192 T03440206 10344 20244 58005
TAF
KJAN 
12nm SW 
201724Z 2018/2118 VRB05KT P6SM SCT050
KHKS 
17nm SW 
201724Z 2018/2118 VRB05KT P6SM SCT050
NOTAMs
Click for the latest NOTAMs
NOTAMs are issued by the DoD/FAA and will open in a separate window not controlled by AirNav.

 

 
 

Would you like to see your business listed on this page?

 If your business provides an interesting product or service to pilots, flight crews, aircraft, or users of the Mach 1 Jet Port Airport, you should consider listing it here.  To start the listing process, click on the button below
 
Add a business
 

Other Pages about Mach 1 Jet Port Airport

Update a link
 
Copyright © AirNav, LLC. All rights reserved. Privacy Policy  Contact